createdAt,value
2023-05-10T00:00:00.569Z,87881.00
2023-05-10T00:01:00.614Z,87881.00
2023-05-10T00:02:00.696Z,87879.00
2023-05-10T00:03:00.789Z,87877.00
2023-05-10T00:04:00.723Z,87875.00
2023-05-10T00:05:00.736Z,87875.00
2023-05-10T00:06:00.785Z,87875.00
2023-05-10T00:07:00.807Z,87877.00
2023-05-10T00:08:00.889Z,87874.00
2023-05-10T00:09:00.924Z,87875.00
2023-05-10T00:10:00.995Z,87874.00
2023-05-10T00:11:00.988Z,87874.00
2023-05-10T00:12:01.032Z,87875.00
2023-05-10T00:13:01.068Z,87874.00
2023-05-10T00:14:01.103Z,87874.00
2023-05-10T00:15:01.116Z,87874.00
2023-05-10T00:16:01.160Z,87874.00
2023-05-10T00:17:01.253Z,87872.00
2023-05-10T00:18:01.096Z,87872.00
2023-05-10T00:19:01.032Z,87870.00
2023-05-10T00:20:01.011Z,87868.00
2023-05-10T00:21:00.986Z,87868.00
2023-05-10T00:22:00.975Z,87868.00
2023-05-10T00:23:00.941Z,87868.00
2023-05-10T00:24:00.952Z,87868.00
2023-05-10T00:25:00.915Z,87870.00
2023-05-10T00:26:00.895Z,87870.00
2023-05-10T00:27:00.933Z,87870.00
2023-05-10T00:28:00.986Z,87868.00
2023-05-10T00:29:01.004Z,87866.00
2023-05-10T00:30:01.025Z,87866.00
2023-05-10T00:31:01.065Z,87866.00
2023-05-10T00:32:01.167Z,87862.00
2023-05-10T00:33:01.240Z,87866.00
2023-05-10T00:34:01.242Z,87862.00
2023-05-10T00:35:01.270Z,87864.00
2023-05-10T00:36:01.329Z,87858.00
2023-05-10T00:37:01.361Z,87860.00
2023-05-10T00:38:01.415Z,87864.00
2023-05-10T00:39:01.478Z,87864.00
2023-05-10T00:40:01.509Z,87860.00
2023-05-10T00:41:01.569Z,87862.00
2023-05-10T00:42:01.630Z,87862.00
2023-05-10T00:43:01.647Z,87860.00
2023-05-10T00:44:01.701Z,87860.00
2023-05-10T00:45:01.775Z,87860.00
2023-05-10T00:46:01.824Z,87858.00
2023-05-10T00:47:01.845Z,87856.00
2023-05-10T00:48:01.923Z,87858.00
2023-05-10T00:49:01.933Z,87854.00
2023-05-10T00:50:01.956Z,87858.00
2023-05-10T00:51:01.995Z,87856.00
2023-05-10T00:52:01.978Z,87856.00
2023-05-10T00:53:02.011Z,87856.00
2023-05-10T00:54:02.089Z,87854.00
2023-05-10T00:55:02.101Z,87856.00
2023-05-10T00:56:02.159Z,87856.00
2023-05-10T00:57:02.204Z,87852.00
2023-05-10T00:58:02.273Z,87850.00
2023-05-10T00:59:02.328Z,87850.00
2023-05-10T01:00:02.353Z,87850.00
2023-05-10T01:01:02.408Z,87850.00
2023-05-10T01:02:02.443Z,87848.00
2023-05-10T01:03:02.528Z,87848.00
2023-05-10T01:04:02.520Z,87850.00
2023-05-10T01:05:02.544Z,87846.00
2023-05-10T01:06:02.498Z,87844.00
2023-05-10T01:07:02.466Z,87844.00
2023-05-10T01:08:02.457Z,87844.00
2023-05-10T01:09:02.461Z,87844.00
2023-05-10T01:10:02.440Z,87844.00
2023-05-10T01:11:02.441Z,87844.00
2023-05-10T01:12:02.431Z,87846.00
2023-05-10T01:13:02.479Z,87846.00
2023-05-10T01:14:02.521Z,87844.00
2023-05-10T01:15:02.575Z,87844.00
2023-05-10T01:16:02.653Z,87844.00
2023-05-10T01:17:02.669Z,87846.00
2023-05-10T01:18:02.736Z,87844.00
2023-05-10T01:19:02.783Z,87844.00
2023-05-10T01:20:02.852Z,87842.00
2023-05-10T01:21:02.882Z,87842.00
2023-05-10T01:22:02.928Z,87840.00
2023-05-10T01:23:02.990Z,87846.00
2023-05-10T01:24:03.045Z,87842.00
2023-05-10T01:25:03.064Z,87840.00
2023-05-10T01:26:03.105Z,87842.00
2023-05-10T01:27:03.148Z,87840.00
2023-05-10T01:28:03.233Z,87838.00
2023-05-10T01:29:03.258Z,87838.00
2023-05-10T01:30:14.745Z,87836.00
2023-05-10T01:31:04.337Z,87836.00
2023-05-10T01:32:03.294Z,87834.00
2023-05-10T01:33:03.275Z,87832.00
2023-05-10T01:34:03.244Z,87836.00
2023-05-10T01:35:03.245Z,87836.00
2023-05-10T01:36:03.212Z,87832.00
2023-05-10T01:37:03.187Z,87832.00
2023-05-10T01:38:03.172Z,87834.00
2023-05-10T01:39:03.163Z,87836.00
2023-05-10T01:40:03.142Z,87830.00
2023-05-10T01:41:03.138Z,87832.00
2023-05-10T01:42:03.158Z,87834.00
2023-05-10T01:43:03.193Z,87834.00
2023-05-10T01:44:03.259Z,87832.00
2023-05-10T01:45:03.330Z,87834.00
2023-05-10T01:46:03.351Z,87836.00
2023-05-10T01:47:03.510Z,87836.00
2023-05-10T01:48:03.478Z,87834.00
2023-05-10T01:49:03.360Z,87830.00
2023-05-10T01:50:03.423Z,87836.00
2023-05-10T01:51:03.483Z,87836.00
2023-05-10T01:52:03.528Z,87834.00
2023-05-10T01:53:03.596Z,87838.00
2023-05-10T01:54:03.646Z,87832.00
2023-05-10T01:55:03.662Z,87836.00
2023-05-10T01:56:03.638Z,87834.00
2023-05-10T01:57:03.635Z,87834.00
2023-05-10T01:58:03.610Z,87832.00
2023-05-10T01:59:03.581Z,87834.00
2023-05-10T02:00:03.574Z,87832.00
2023-05-10T02:01:03.542Z,87834.00
2023-05-10T02:02:03.522Z,87832.00
2023-05-10T02:03:03.500Z,87836.00
2023-05-10T02:04:03.574Z,87838.00
2023-05-10T02:05:03.440Z,87840.00
2023-05-10T02:06:03.408Z,87838.00
2023-05-10T02:07:03.398Z,87836.00
2023-05-10T02:08:03.385Z,87842.00
2023-05-10T02:09:03.351Z,87842.00
2023-05-10T02:10:03.333Z,87842.00
2023-05-10T02:11:03.305Z,87842.00
2023-05-10T02:12:03.272Z,87842.00
2023-05-10T02:13:03.263Z,87844.00
2023-05-10T02:14:03.241Z,87846.00
2023-05-10T02:15:03.229Z,87844.00
2023-05-10T02:16:03.232Z,87844.00
2023-05-10T02:17:03.369Z,87846.00
2023-05-10T02:18:03.369Z,87844.00
2023-05-10T02:19:03.327Z,87846.00
2023-05-10T02:20:03.280Z,87846.00
2023-05-10T02:21:03.263Z,87844.00
2023-05-10T02:22:03.244Z,87844.00
2023-05-10T02:23:03.237Z,87844.00
2023-05-10T02:24:03.246Z,87850.00
2023-05-10T02:25:03.241Z,87844.00
2023-05-10T02:26:03.183Z,87844.00
2023-05-10T02:27:03.161Z,87850.00
2023-05-10T02:28:03.140Z,87846.00
2023-05-10T02:29:03.164Z,87846.00
2023-05-10T02:30:03.151Z,87846.00
2023-05-10T02:31:03.161Z,87846.00
2023-05-10T02:32:03.223Z,87848.00
2023-05-10T02:33:03.235Z,87846.00
2023-05-10T02:34:03.226Z,87848.00
2023-05-10T02:35:03.225Z,87846.00
2023-05-10T02:36:03.217Z,87850.00
2023-05-10T02:37:03.240Z,87848.00
2023-05-10T02:38:03.272Z,87848.00
2023-05-10T02:39:03.353Z,87850.00
2023-05-10T02:40:03.432Z,87850.00
2023-05-10T02:41:03.500Z,87850.00
2023-05-10T02:42:03.584Z,87850.00
2023-05-10T02:43:03.679Z,87852.00
2023-05-10T02:44:03.756Z,87852.00
2023-05-10T02:45:03.820Z,87850.00
2023-05-10T02:46:03.893Z,87850.00
2023-05-10T02:47:03.871Z,87848.00
2023-05-10T02:48:03.908Z,87846.00
2023-05-10T02:49:03.863Z,87844.00
2023-05-10T02:50:03.853Z,87846.00
2023-05-10T02:51:03.867Z,87848.00
2023-05-10T02:52:03.938Z,87846.00
2023-05-10T02:53:04.063Z,87848.00
2023-05-10T02:54:04.120Z,87848.00
2023-05-10T02:55:04.218Z,87848.00
2023-05-10T02:56:04.300Z,87844.00
2023-05-10T02:57:04.425Z,87848.00
2023-05-10T02:58:04.496Z,87850.00
2023-05-10T02:59:04.501Z,87848.00
2023-05-10T03:00:04.477Z,87848.00
2023-05-10T03:01:04.503Z,87850.00
2023-05-10T03:02:04.444Z,87852.00
2023-05-10T03:03:04.542Z,87850.00
2023-05-10T03:04:04.483Z,87850.00
2023-05-10T03:05:04.469Z,87848.00
2023-05-10T03:06:04.413Z,87852.00
2023-05-10T03:07:04.416Z,87852.00
2023-05-10T03:08:04.382Z,87848.00
2023-05-10T03:09:04.375Z,87848.00
2023-05-10T03:10:04.390Z,87850.00
2023-05-10T03:11:04.339Z,87852.00
2023-05-10T03:12:04.347Z,87852.00
2023-05-10T03:13:04.407Z,87852.00
2023-05-10T03:14:04.316Z,87854.00
2023-05-10T03:15:04.324Z,87852.00
2023-05-10T03:16:04.340Z,87854.00
2023-05-10T03:17:04.311Z,87854.00
2023-05-10T03:18:04.355Z,87854.00
2023-05-10T03:19:04.391Z,87856.00
2023-05-10T03:20:04.428Z,87852.00
2023-05-10T03:21:04.464Z,87856.00
2023-05-10T03:22:04.526Z,87856.00
2023-05-10T03:23:04.561Z,87858.00
2023-05-10T03:24:04.556Z,87858.00
2023-05-10T03:25:04.570Z,87860.00
2023-05-10T03:26:04.539Z,87860.00
2023-05-10T03:27:04.526Z,87860.00
2023-05-10T03:28:04.543Z,87862.00
2023-05-10T03:29:04.552Z,87862.00
2023-05-10T03:30:04.501Z,87862.00
2023-05-10T03:31:04.509Z,87862.00
2023-05-10T03:32:04.495Z,87866.00
2023-05-10T03:33:04.494Z,87866.00
2023-05-10T03:34:04.480Z,87866.00
2023-05-10T03:35:04.520Z,87866.00
2023-05-10T03:36:04.568Z,87868.00
2023-05-10T03:37:04.617Z,87868.00
2023-05-10T03:38:04.670Z,87872.00
2023-05-10T03:39:04.740Z,87872.00
2023-05-10T03:40:04.793Z,87872.00
2023-05-10T03:41:04.845Z,87874.00
2023-05-10T03:42:04.892Z,87870.00
2023-05-10T03:43:04.943Z,87872.00
2023-05-10T03:44:05.018Z,87875.00
2023-05-10T03:45:05.073Z,87874.00
2023-05-10T03:46:05.141Z,87874.00
2023-05-10T03:47:05.226Z,87875.00
2023-05-10T03:48:05.270Z,87877.00
2023-05-10T03:49:05.318Z,87875.00
2023-05-10T03:50:05.335Z,87879.00
2023-05-10T03:51:05.386Z,87877.00
2023-05-10T03:52:05.435Z,87879.00
2023-05-10T03:53:05.465Z,87879.00
2023-05-10T03:54:05.535Z,87881.00
2023-05-10T03:55:05.593Z,87885.00
2023-05-10T03:56:05.592Z,87887.00
2023-05-10T03:57:05.587Z,87887.00
2023-05-10T03:58:05.582Z,87889.00
2023-05-10T03:59:05.580Z,87889.00
2023-05-10T04:00:05.571Z,87891.00
2023-05-10T04:01:05.562Z,87891.00
2023-05-10T04:02:05.593Z,87889.00
2023-05-10T04:03:05.634Z,87887.00
2023-05-10T04:04:05.627Z,87891.00
2023-05-10T04:05:05.556Z,87891.00
2023-05-10T04:06:05.607Z,87889.00
2023-05-10T04:07:05.604Z,87889.00
2023-05-10T04:08:05.668Z,87889.00
2023-05-10T04:09:05.769Z,87889.00
2023-05-10T04:10:05.767Z,87891.00
2023-05-10T04:11:05.775Z,87895.00
2023-05-10T04:12:05.778Z,87893.00
2023-05-10T04:13:05.843Z,87895.00
2023-05-10T04:14:05.835Z,87895.00
2023-05-10T04:15:05.866Z,87893.00
2023-05-10T04:16:05.919Z,87895.00
2023-05-10T04:17:06.041Z,87895.00
2023-05-10T04:18:07.291Z,87897.00
2023-05-10T04:19:05.952Z,87897.00
2023-05-10T04:20:05.927Z,87899.00
2023-05-10T04:21:05.908Z,87901.00
2023-05-10T04:22:05.898Z,87901.00
2023-05-10T04:23:05.896Z,87899.00
2023-05-10T04:24:05.877Z,87901.00
2023-05-10T04:25:05.866Z,87901.00
2023-05-10T04:26:05.863Z,87897.00
2023-05-10T04:27:05.854Z,87899.00
2023-05-10T04:28:05.839Z,87897.00
2023-05-10T04:29:05.837Z,87895.00
2023-05-10T04:30:05.808Z,87897.00
2023-05-10T04:31:05.923Z,87893.00
2023-05-10T04:32:05.800Z,87889.00
2023-05-10T04:33:05.810Z,87889.00
2023-05-10T04:34:05.775Z,87895.00
2023-05-10T04:35:05.759Z,87893.00
2023-05-10T04:36:05.774Z,87891.00
2023-05-10T04:37:05.741Z,87893.00
2023-05-10T04:38:05.722Z,87895.00
2023-05-10T04:39:05.753Z,87895.00
2023-05-10T04:40:05.693Z,87897.00
2023-05-10T04:41:05.703Z,87899.00
2023-05-10T04:42:05.663Z,87897.00
2023-05-10T04:43:05.677Z,87897.00
2023-05-10T04:44:05.673Z,87899.00
2023-05-10T04:45:05.650Z,87897.00
2023-05-10T04:46:05.752Z,87899.00
2023-05-10T04:47:05.669Z,87901.00
2023-05-10T04:48:05.770Z,87901.00
2023-05-10T04:49:05.745Z,87899.00
2023-05-10T04:50:05.688Z,87903.00
2023-05-10T04:51:05.746Z,87901.00
2023-05-10T04:52:05.657Z,87901.00
2023-05-10T04:53:05.651Z,87903.00
2023-05-10T04:54:06.824Z,87905.00
2023-05-10T04:55:05.635Z,87901.00
2023-05-10T04:56:05.619Z,87905.00
2023-05-10T04:57:05.605Z,87903.00
2023-05-10T04:58:05.632Z,87903.00
2023-05-10T04:59:05.621Z,87905.00
2023-05-10T05:00:05.677Z,87905.00
2023-05-10T05:01:05.752Z,87903.00
2023-05-10T05:02:05.901Z,87907.00
2023-05-10T05:03:05.942Z,87909.00
2023-05-10T05:04:05.920Z,87909.00
2023-05-10T05:05:05.972Z,87911.00
2023-05-10T05:06:06.042Z,87909.00
2023-05-10T05:07:06.095Z,87907.00
2023-05-10T05:08:06.150Z,87911.00
2023-05-10T05:09:06.215Z,87909.00
2023-05-10T05:10:06.250Z,87907.00
2023-05-10T05:11:06.308Z,87907.00
2023-05-10T05:12:06.344Z,87907.00
2023-05-10T05:13:06.332Z,87909.00
2023-05-10T05:14:06.307Z,87907.00
2023-05-10T05:15:08.463Z,87907.00
2023-05-10T05:16:06.278Z,87907.00
2023-05-10T05:17:06.263Z,87907.00
2023-05-10T05:18:06.310Z,87903.00
2023-05-10T05:19:06.255Z,87905.00
2023-05-10T05:20:06.249Z,87903.00
2023-05-10T05:21:06.261Z,87905.00
2023-05-10T05:22:06.230Z,87901.00
2023-05-10T05:23:06.209Z,87903.00
2023-05-10T05:24:06.209Z,87905.00
2023-05-10T05:25:06.211Z,87903.00
2023-05-10T05:26:06.193Z,87905.00
2023-05-10T05:27:06.160Z,87905.00
2023-05-10T05:28:06.160Z,87905.00
2023-05-10T05:29:06.159Z,87907.00
2023-05-10T05:30:06.140Z,87907.00
2023-05-10T05:31:06.204Z,87907.00
2023-05-10T05:32:06.196Z,87905.00
2023-05-10T05:33:06.161Z,87907.00
2023-05-10T05:34:06.146Z,87907.00
2023-05-10T05:35:06.225Z,87909.00
2023-05-10T05:36:06.083Z,87909.00
2023-05-10T05:37:06.065Z,87909.00
2023-05-10T05:38:06.119Z,87905.00
2023-05-10T05:39:06.048Z,87903.00
2023-05-10T05:40:06.038Z,87907.00
2023-05-10T05:41:06.078Z,87907.00
2023-05-10T05:42:06.041Z,87907.00
2023-05-10T05:43:06.147Z,87905.00
2023-05-10T05:44:06.040Z,87907.00
2023-05-10T05:45:06.038Z,87907.00
2023-05-10T05:46:06.265Z,87903.00
2023-05-10T05:47:06.054Z,87905.00
2023-05-10T05:48:06.134Z,87907.00
2023-05-10T05:49:06.041Z,87907.00
2023-05-10T05:50:06.074Z,87911.00
2023-05-10T05:51:07.423Z,87909.00
2023-05-10T05:52:06.053Z,87909.00
2023-05-10T05:53:06.050Z,87911.00
2023-05-10T05:54:06.058Z,87909.00
2023-05-10T05:55:06.098Z,87907.00
2023-05-10T05:56:06.080Z,87909.00
2023-05-10T05:57:06.083Z,87911.00
2023-05-10T05:58:06.092Z,87909.00
2023-05-10T05:59:06.094Z,87909.00
2023-05-10T06:00:06.147Z,87909.00
2023-05-10T06:01:06.084Z,87909.00
2023-05-10T06:02:06.153Z,87911.00
2023-05-10T06:03:06.249Z,87909.00
2023-05-10T06:04:06.235Z,87911.00
2023-05-10T06:05:06.160Z,87911.00
2023-05-10T06:06:06.112Z,87911.00
2023-05-10T06:07:06.181Z,87911.00
2023-05-10T06:08:06.126Z,87913.00
2023-05-10T06:09:06.223Z,87915.00
2023-05-10T06:10:06.281Z,87915.00
2023-05-10T06:11:06.329Z,87915.00
2023-05-10T06:12:06.399Z,87915.00
2023-05-10T06:13:06.537Z,87917.00
2023-05-10T06:14:06.511Z,87917.00
2023-05-10T06:15:06.564Z,87919.00
2023-05-10T06:16:06.580Z,87917.00
2023-05-10T06:17:06.687Z,87922.00
2023-05-10T06:18:06.759Z,87921.00
2023-05-10T06:19:06.704Z,87924.00
2023-05-10T06:20:06.744Z,87924.00
2023-05-10T06:21:06.776Z,87926.00
2023-05-10T06:22:06.805Z,87924.00
2023-05-10T06:23:06.806Z,87926.00
2023-05-10T06:24:06.826Z,87928.00
2023-05-10T06:25:06.836Z,87926.00
2023-05-10T06:26:06.818Z,87926.00
2023-05-10T06:27:06.841Z,87930.00
2023-05-10T06:28:06.875Z,87930.00
2023-05-10T06:29:06.907Z,87930.00
2023-05-10T06:30:12.838Z,87934.00
2023-05-10T06:31:07.949Z,87936.00
2023-05-10T06:32:06.970Z,87934.00
2023-05-10T06:33:07.018Z,87938.00
2023-05-10T06:34:06.926Z,87936.00
2023-05-10T06:35:07.036Z,87940.00
2023-05-10T06:36:06.900Z,87940.00
2023-05-10T06:37:06.922Z,87938.00
2023-05-10T06:38:06.860Z,87938.00
2023-05-10T06:39:06.876Z,87940.00
2023-05-10T06:40:06.884Z,87938.00
2023-05-10T06:41:06.906Z,87936.00
2023-05-10T06:42:06.990Z,87940.00
2023-05-10T06:43:06.994Z,87936.00
2023-05-10T06:44:07.029Z,87936.00
2023-05-10T06:45:07.093Z,87940.00
2023-05-10T06:46:07.062Z,87938.00
2023-05-10T06:47:06.982Z,87938.00
2023-05-10T06:48:07.007Z,87940.00
2023-05-10T06:49:06.939Z,87942.00
2023-05-10T06:50:06.980Z,87938.00
2023-05-10T06:51:07.006Z,87940.00
2023-05-10T06:52:06.908Z,87938.00
2023-05-10T06:53:06.947Z,87940.00
2023-05-10T06:54:06.916Z,87940.00
2023-05-10T06:55:06.896Z,87942.00
2023-05-10T06:56:06.872Z,87940.00
2023-05-10T06:57:13.059Z,87940.00
2023-05-10T06:58:07.845Z,87940.00
2023-05-10T06:59:06.866Z,87942.00
2023-05-10T07:00:06.892Z,87940.00
2023-05-10T07:01:06.943Z,87940.00
2023-05-10T07:02:06.858Z,87940.00
2023-05-10T07:03:06.860Z,87942.00
2023-05-10T07:04:06.835Z,87940.00
2023-05-10T07:05:06.795Z,87944.00
2023-05-10T07:06:07.187Z,87940.00
2023-05-10T07:07:06.748Z,87938.00
2023-05-10T07:08:06.752Z,87940.00
2023-05-10T07:09:06.741Z,87940.00
2023-05-10T07:10:06.744Z,87938.00
2023-05-10T07:11:06.746Z,87940.00
2023-05-10T07:12:08.055Z,87940.00
2023-05-10T07:13:06.765Z,87940.00
2023-05-10T07:14:06.713Z,87942.00
2023-05-10T07:15:06.742Z,87940.00
2023-05-10T07:16:06.726Z,87944.00
2023-05-10T07:17:06.760Z,87942.00
2023-05-10T07:18:06.769Z,87940.00
2023-05-10T07:19:06.805Z,87940.00
2023-05-10T07:20:06.712Z,87940.00
2023-05-10T07:21:06.735Z,87940.00
2023-05-10T07:22:06.722Z,87940.00
2023-05-10T07:23:06.673Z,87940.00
2023-05-10T07:24:06.702Z,87942.00
2023-05-10T07:25:06.673Z,87940.00
2023-05-10T07:26:06.648Z,87938.00
2023-05-10T07:27:06.681Z,87940.00
2023-05-10T07:28:06.642Z,87938.00
2023-05-10T07:29:06.806Z,87940.00
2023-05-10T07:30:06.635Z,87940.00
2023-05-10T07:31:06.709Z,87944.00
2023-05-10T07:32:06.684Z,87940.00
2023-05-10T07:33:06.743Z,87940.00
2023-05-10T07:34:06.621Z,87940.00
2023-05-10T07:35:06.610Z,87942.00
2023-05-10T07:36:06.634Z,87940.00
2023-05-10T07:37:06.603Z,87940.00
2023-05-10T07:38:06.613Z,87942.00
2023-05-10T07:39:06.611Z,87944.00
2023-05-10T07:40:06.597Z,87940.00
2023-05-10T07:41:06.583Z,87940.00
2023-05-10T07:42:06.608Z,87940.00
2023-05-10T07:43:06.585Z,87938.00
2023-05-10T07:44:06.572Z,87938.00
2023-05-10T07:45:06.578Z,87938.00
2023-05-10T07:46:06.640Z,87942.00
2023-05-10T07:47:06.572Z,87944.00
2023-05-10T07:48:06.608Z,87942.00
2023-05-10T07:49:06.572Z,87942.00
2023-05-10T07:50:06.601Z,87942.00
2023-05-10T07:51:06.555Z,87942.00
2023-05-10T07:52:06.556Z,87940.00
2023-05-10T07:53:06.545Z,87940.00
2023-05-10T07:54:06.544Z,87940.00
2023-05-10T07:55:06.568Z,87938.00
2023-05-10T07:56:06.550Z,87938.00
2023-05-10T07:57:06.508Z,87940.00
2023-05-10T07:58:06.541Z,87940.00
2023-05-10T07:59:06.500Z,87942.00
2023-05-10T08:00:06.524Z,87940.00
2023-05-10T08:01:06.514Z,87936.00
2023-05-10T08:02:06.533Z,87940.00
2023-05-10T08:03:06.617Z,87938.00
2023-05-10T08:04:06.554Z,87938.00
2023-05-10T08:05:06.486Z,87938.00
2023-05-10T08:06:06.467Z,87934.00
2023-05-10T08:07:06.451Z,87934.00
2023-05-10T08:08:06.458Z,87934.00
2023-05-10T08:09:06.451Z,87932.00
2023-05-10T08:10:06.532Z,87934.00
2023-05-10T08:11:06.444Z,87930.00
2023-05-10T08:12:06.473Z,87930.00
2023-05-10T08:13:06.481Z,87930.00
2023-05-10T08:14:06.528Z,87930.00
2023-05-10T08:15:06.544Z,87930.00
2023-05-10T08:16:06.548Z,87928.00
2023-05-10T08:17:06.563Z,87932.00
2023-05-10T08:18:06.654Z,87932.00
2023-05-10T08:19:06.641Z,87930.00
2023-05-10T08:20:06.550Z,87932.00
2023-05-10T08:21:06.561Z,87932.00
2023-05-10T08:22:06.610Z,87930.00
2023-05-10T08:23:06.573Z,87932.00
2023-05-10T08:24:06.613Z,87934.00
2023-05-10T08:25:06.599Z,87932.00
2023-05-10T08:26:06.610Z,87934.00
2023-05-10T08:27:06.624Z,87932.00
2023-05-10T08:28:06.616Z,87934.00
2023-05-10T08:29:06.625Z,87934.00
2023-05-10T08:30:06.657Z,87934.00
2023-05-10T08:31:06.698Z,87934.00
2023-05-10T08:32:06.656Z,87934.00
2023-05-10T08:33:06.729Z,87934.00
2023-05-10T08:34:06.674Z,87936.00
2023-05-10T08:35:06.849Z,87936.00
2023-05-10T08:36:06.735Z,87934.00
2023-05-10T08:37:06.841Z,87934.00
2023-05-10T08:38:06.736Z,87934.00
2023-05-10T08:39:13.552Z,87934.00
2023-05-10T08:40:07.754Z,87934.00
2023-05-10T08:41:06.730Z,87934.00
2023-05-10T08:42:06.736Z,87938.00
2023-05-10T08:43:06.710Z,87938.00
2023-05-10T08:44:06.698Z,87936.00
2023-05-10T08:45:06.693Z,87940.00
2023-05-10T08:46:06.728Z,87942.00
2023-05-10T08:47:07.020Z,87940.00
2023-05-10T08:48:06.717Z,87938.00
2023-05-10T08:49:06.693Z,87940.00
2023-05-10T08:50:06.677Z,87940.00
2023-05-10T08:51:06.680Z,87944.00
2023-05-10T08:52:06.737Z,87942.00
2023-05-10T08:53:06.775Z,87942.00
2023-05-10T08:54:06.665Z,87944.00
2023-05-10T08:55:06.658Z,87940.00
2023-05-10T08:56:06.673Z,87942.00
2023-05-10T08:57:06.633Z,87938.00
2023-05-10T08:58:06.687Z,87938.00
2023-05-10T08:59:06.631Z,87938.00
2023-05-10T09:00:06.610Z,87942.00
2023-05-10T09:01:06.608Z,87946.00
2023-05-10T09:02:06.603Z,87940.00
2023-05-10T09:03:06.687Z,87944.00
2023-05-10T09:04:06.639Z,87948.00
2023-05-10T09:05:06.709Z,87950.00
2023-05-10T09:06:06.672Z,87950.00
2023-05-10T09:07:06.592Z,87952.00
2023-05-10T09:08:06.588Z,87954.00
2023-05-10T09:09:06.568Z,87952.00
2023-05-10T09:10:06.605Z,87950.00
2023-05-10T09:11:06.619Z,87956.00
2023-05-10T09:12:06.663Z,87952.00
2023-05-10T09:13:06.705Z,87954.00
2023-05-10T09:14:06.729Z,87958.00
2023-05-10T09:15:06.759Z,87958.00
2023-05-10T09:16:13.933Z,87958.00
2023-05-10T09:17:07.740Z,87960.00
2023-05-10T09:18:06.804Z,87962.00
2023-05-10T09:19:06.796Z,87958.00
2023-05-10T09:20:06.767Z,87962.00
2023-05-10T09:21:06.687Z,87962.00
2023-05-10T09:22:06.732Z,87966.00
2023-05-10T09:23:06.681Z,87966.00
2023-05-10T09:24:06.697Z,87964.00
2023-05-10T09:25:06.693Z,87966.00
2023-05-10T09:26:06.653Z,87968.00
2023-05-10T09:27:06.657Z,87972.00
2023-05-10T09:28:06.632Z,87970.00
2023-05-10T09:29:06.668Z,87974.00
2023-05-10T09:30:06.675Z,87974.00
2023-05-10T09:31:06.671Z,87983.00
2023-05-10T09:32:06.621Z,87987.00
2023-05-10T09:33:06.636Z,87985.00
2023-05-10T09:34:06.604Z,87987.00
2023-05-10T09:35:06.666Z,87989.00
2023-05-10T09:36:06.577Z,87992.00
2023-05-10T09:37:06.583Z,87989.00
2023-05-10T09:38:06.621Z,87990.00
2023-05-10T09:39:06.586Z,87990.00
2023-05-10T09:40:06.555Z,87990.00
2023-05-10T09:41:06.552Z,87994.00
2023-05-10T09:42:06.560Z,87994.00
2023-05-10T09:43:06.498Z,87990.00
2023-05-10T09:44:06.498Z,87992.00
2023-05-10T09:45:06.498Z,87996.00
2023-05-10T09:46:06.583Z,87992.00
2023-05-10T09:47:06.512Z,87992.00
2023-05-10T09:48:06.538Z,87996.00
2023-05-10T09:49:06.450Z,87996.00
2023-05-10T09:50:06.442Z,87996.00
2023-05-10T09:51:06.440Z,87994.00
2023-05-10T09:52:06.411Z,87996.00
2023-05-10T09:53:06.416Z,87996.00
2023-05-10T09:54:06.393Z,87998.00
2023-05-10T09:55:06.398Z,88000.00
2023-05-10T09:56:06.414Z,88000.00
2023-05-10T09:57:06.417Z,88000.00
2023-05-10T09:58:06.389Z,88000.00
2023-05-10T09:59:06.369Z,88002.00
2023-05-10T10:00:06.363Z,88002.00
2023-05-10T10:01:06.390Z,88004.00
2023-05-10T10:02:06.408Z,88002.00
2023-05-10T10:03:06.421Z,88000.00
2023-05-10T10:04:06.351Z,88004.00
2023-05-10T10:05:06.416Z,88004.00
2023-05-10T10:06:09.446Z,88006.00
2023-05-10T10:07:07.393Z,88006.00
2023-05-10T10:08:06.312Z,88010.00
2023-05-10T10:09:06.278Z,88008.00
2023-05-10T10:10:06.319Z,88008.00
2023-05-10T10:11:06.293Z,88010.00
2023-05-10T10:12:06.267Z,88012.00
2023-05-10T10:13:06.472Z,88008.00
2023-05-10T10:14:06.276Z,88010.00
2023-05-10T10:15:06.287Z,88008.00
2023-05-10T10:16:06.364Z,88010.00
2023-05-10T10:17:08.286Z,88010.00
2023-05-10T10:18:06.259Z,88008.00
2023-05-10T10:19:06.242Z,88008.00
2023-05-10T10:20:06.237Z,88010.00
2023-05-10T10:21:06.222Z,88010.00
2023-05-10T10:22:06.205Z,88010.00
2023-05-10T10:23:06.165Z,88006.00
2023-05-10T10:24:06.183Z,88008.00
2023-05-10T10:25:06.168Z,88008.00
2023-05-10T10:26:06.148Z,88010.00
2023-05-10T10:27:06.147Z,88010.00
2023-05-10T10:28:06.103Z,88010.00
2023-05-10T10:29:06.105Z,88010.00
2023-05-10T10:30:06.132Z,88008.00
2023-05-10T10:31:06.148Z,88006.00
2023-05-10T10:32:06.081Z,88004.00
2023-05-10T10:33:13.561Z,88004.00
2023-05-10T10:34:07.097Z,88002.00
2023-05-10T10:35:06.086Z,88000.00
2023-05-10T10:36:06.056Z,88002.00
2023-05-10T10:37:06.045Z,88000.00
2023-05-10T10:38:06.048Z,88000.00
2023-05-10T10:39:06.068Z,87998.00
2023-05-10T10:40:06.119Z,87994.00
2023-05-10T10:41:06.047Z,87998.00
2023-05-10T10:42:06.062Z,87996.00
2023-05-10T10:43:06.076Z,87996.00
2023-05-10T10:44:06.157Z,87994.00
2023-05-10T10:45:06.160Z,87998.00
2023-05-10T10:46:06.079Z,87994.00
2023-05-10T10:47:06.292Z,87996.00
2023-05-10T10:48:06.136Z,87994.00
2023-05-10T10:49:06.112Z,87998.00
2023-05-10T10:50:06.238Z,87994.00
2023-05-10T10:51:06.187Z,87998.00
2023-05-10T10:52:06.222Z,87998.00
2023-05-10T10:53:06.349Z,87998.00
2023-05-10T10:54:06.271Z,87994.00
2023-05-10T10:55:06.308Z,87990.00
2023-05-10T10:56:06.316Z,87992.00
2023-05-10T10:57:06.400Z,87994.00
2023-05-10T10:58:06.321Z,87994.00
2023-05-10T10:59:06.334Z,87994.00
2023-05-10T11:00:06.301Z,87992.00
2023-05-10T11:01:06.410Z,87990.00
2023-05-10T11:02:06.321Z,87990.00
2023-05-10T11:03:06.388Z,87989.00
2023-05-10T11:04:06.335Z,87989.00
2023-05-10T11:05:06.295Z,87989.00
2023-05-10T11:06:06.311Z,87990.00
2023-05-10T11:07:06.301Z,87989.00
2023-05-10T11:08:06.327Z,87989.00
2023-05-10T11:09:06.301Z,87987.00
2023-05-10T11:10:06.316Z,87987.00
2023-05-10T11:11:06.420Z,87985.00
2023-05-10T11:12:06.317Z,87983.00
2023-05-10T11:13:06.348Z,87974.00
2023-05-10T11:14:06.323Z,87976.00
2023-05-10T11:15:06.361Z,87972.00
2023-05-10T11:16:06.372Z,87976.00
2023-05-10T11:17:06.451Z,87976.00
2023-05-10T11:18:06.463Z,87972.00
2023-05-10T11:19:06.542Z,87972.00
2023-05-10T11:20:06.511Z,87972.00
2023-05-10T11:21:14.511Z,87974.00
2023-05-10T11:22:06.539Z,87976.00
2023-05-10T11:23:06.542Z,87972.00
2023-05-10T11:24:06.870Z,87974.00
2023-05-10T11:25:06.568Z,87983.00
2023-05-10T11:26:07.020Z,87983.00
2023-05-10T11:27:06.510Z,87983.00
2023-05-10T11:28:06.552Z,87983.00
2023-05-10T11:29:06.549Z,87974.00
2023-05-10T11:30:06.489Z,87976.00
2023-05-10T11:31:06.507Z,87985.00
2023-05-10T11:32:06.593Z,87976.00
2023-05-10T11:33:06.522Z,87976.00
2023-05-10T11:34:06.469Z,87987.00
2023-05-10T11:35:06.518Z,87985.00
2023-05-10T11:36:06.467Z,87976.00
2023-05-10T11:37:06.492Z,87976.00
2023-05-10T11:38:06.439Z,87976.00
2023-05-10T11:39:06.598Z,87976.00
2023-05-10T11:40:06.447Z,87972.00
2023-05-10T11:41:06.451Z,87976.00
2023-05-10T11:42:06.454Z,87974.00
2023-05-10T11:43:06.445Z,87983.00
2023-05-10T11:44:06.432Z,87976.00